Terminal Aerodrome Forecast
Issued by NWS

Home | Current Version | Previous Version | Text Only | Print | Product List | Glossary On
Versions: 1 2 3 4 5 6 7 8 9 10 11 12 13 14 15 16 17 18 19 20
000
FTUS43 KPAH 171136
TAFCGI
TAF
KCGI 171136Z 1712/1812 VRB03KT 3SM BR SCT009 SCT250
      TEMPO 1712/1713 1/4SM FG BKN009
     FM171300 08004KT 6SM BR BKN009
     FM171700 13005KT P6SM BKN035
     FM180300 00000KT 6SM BR FEW035 SCT250
     FM180600 00000KT 2SM BR FEW005 BKN250=

USA.gov is the U.S. government's official web portal to all federal, state and local government web resources and services.